Da Costa, Texas
Current Conditions -  °F | °C
As of 7:51 AM on Wednesday 22 Oct 2014 (Local Time) from KVCT Reporting Station
Haze Haze  
Wind Chill: 61°   Ceiling: Unl
Heat Index: 61°   Visibility: 6mi
Dew Point: 57°   Wind: 6mph
Humidity: 87%   Direction: 30°NNE
Pressure: 30.05"   Gusts: NA
Location:  28.7094°N, 97.0351°W
Report Text: KVCT 221251Z 03005KT 6SM BR CLR 16/14 A3005 RMK AO2 SLP174 T01610139
Loading
Personal Weather Stations






























Interactive Weather Map
Tropical Storm Tracking
New forecast layout! Learn more

10-Day Weather Forecast

Advertisements
Track Severe Weather on mobile